Time;durP1;ratioP1;P1;durP2;ratioP2;P2;SDS_P1;SDS_P2;PMS_P1;PMS_P2;Temp;Humidity;BMP_temperature;BMP_pressure;BME280_temperature;BME280_humidity;BME280_pressure;Samples;Min_cycle;Max_cycle;Signal;HPM_P1;HPM_P2
2023/02/13 00:00:45;;;;;;;;;33.50;30.00;;;;;9.58;60.28;102693.22;6334417;22;45606;-76
2023/02/13 00:03:11;;;;;;;;;38.50;34.25;;;;;9.60;60.52;102698.41;6334607;22;45754;-76
2023/02/13 00:05:36;;;;;;;;;39.25;33.25;;;;;9.59;60.57;102694.94;6333743;22;46996;-74
2023/02/13 00:08:03;;;;;;;;;39.00;33.25;;;;;9.58;60.57;102690.63;6334822;22;46093;-75
2023/02/13 00:10:28;;;;;;;;;38.00;30.75;;;;;9.55;60.56;102682.03;6334569;22;45811;-77
2023/02/13 00:12:54;;;;;;;;;38.75;29.75;;;;;9.58;60.73;102688.00;6333754;22;45422;-77
2023/02/13 00:15:19;;;;;;;;;37.00;30.50;;;;;9.59;60.63;102689.72;6334609;22;46467;-76
2023/02/13 00:17:44;;;;;;;;;43.00;33.50;;;;;9.59;60.57;102691.47;6334040;22;45435;-76
2023/02/13 00:20:11;;;;;;;;;38.00;30.50;;;;;9.58;60.59;102684.53;6333999;22;45549;-77
2023/02/13 00:22:37;;;;;;;;;40.75;32.75;;;;;9.41;60.64;102660.69;6334173;22;45571;-77
2023/02/13 00:25:04;;;;;;;;;31.75;28.00;;;;;9.54;60.55;102683.78;6334687;22;46135;-75
2023/02/13 00:30:51;;;;;;;;;34.25;33.25;;;;;9.53;60.70;102678.59;6334361;22;45758;-75
2023/02/13 00:33:16;;;;;;;;;34.25;29.75;;;;;9.54;60.87;102685.53;6335180;22;45772;-76
2023/02/13 00:35:42;;;;;;;;;35.50;29.75;;;;;9.54;60.91;102683.78;6334768;22;46204;-76
2023/02/13 00:38:07;;;;;;;;;41.75;32.00;;;;;9.50;60.98;102681.31;6333812;22;46302;-75
2023/02/13 00:40:32;;;;;;;;;33.00;29.50;;;;;9.53;60.83;102681.19;6333843;22;45664;-76
2023/02/13 00:46:19;;;;;;;;;32.75;29.50;;;;;9.50;61.19;102689.16;6334323;22;45924;-75
2023/02/13 00:48:45;;;;;;;;;30.25;27.75;;;;;9.49;61.20;102690.94;6334520;22;45835;-75
2023/02/13 00:51:10;;;;;;;;;34.00;29.50;;;;;9.48;61.26;102685.75;6333750;22;45509;-76
2023/02/13 00:53:37;;;;;;;;;35.75;26.75;;;;;9.46;61.17;102695.38;6334403;22;45492;-75
2023/02/13 00:56:03;;;;;;;;;28.75;26.50;;;;;9.43;61.37;102693.75;6332149;22;48707;-75
2023/02/13 00:58:29;;;;;;;;;34.75;29.50;;;;;9.44;61.35;102684.13;6332940;22;48544;-75
2023/02/13 01:00:54;;;;;;;;;31.00;28.50;;;;;9.42;61.53;102681.56;6333053;22;45493;-76
2023/02/13 01:03:21;;;;;;;;;38.25;29.75;;;;;9.36;61.48;102675.66;6334339;22;45493;-76
2023/02/13 01:05:47;;;;;;;;;39.00;30.50;;;;;9.39;61.33;102670.34;6333913;22;45627;-76
2023/02/13 01:08:13;;;;;;;;;30.25;29.00;;;;;9.35;61.77;102663.50;6333349;22;46083;-74
2023/02/13 01:10:40;;;;;;;;;33.25;29.00;;;;;9.41;61.42;102676.38;6333299;22;45473;-75
2023/02/13 01:16:27;;;;;;;;;36.75;29.75;;;;;9.31;61.64;102654.03;6333535;22;45930;-75
2023/02/13 01:18:52;;;;;;;;;36.50;29.75;;;;;9.35;61.64;102671.34;6333137;22;45873;-74
2023/02/13 01:21:22;;;;;;;;;39.00;33.50;;;;;9.34;61.53;102664.41;6333324;22;45494;-76
2023/02/13 01:23:47;;;;;;;;;37.25;31.25;;;;;9.34;61.65;102673.09;6333657;22;45659;-75
2023/02/13 01:32:42;;;;;;;;;38.75;33.25;;;;;9.31;61.63;102682.81;6333950;22;45526;-76
2023/02/13 01:35:08;;;;;;;;;31.00;29.25;;;;;9.30;61.74;102673.25;6333265;22;45908;-75
2023/02/13 01:37:34;;;;;;;;;37.25;32.75;;;;;9.28;61.60;102673.31;6333590;22;46227;-74
2023/02/13 01:39:59;;;;;;;;;36.50;33.25;;;;;9.13;61.90;102648.50;6333029;22;46531;-76
2023/02/13 01:42:32;;;;;;;;;34.25;30.50;;;;;9.25;61.70;102670.78;6305249;22;46058;-75
2023/02/13 01:45:00;;;;;;;;;38.25;32.50;;;;;9.23;61.90;102667.38;6333457;22;45599;-76
2023/02/13 01:47:40;;;;;;;;;39.75;33.25;;;;;9.26;61.88;102683.81;6332931;22;46429;-76
2023/02/13 01:50:20;;;;;;;;;37.25;31.50;;;;;9.25;61.76;102674.25;6332604;22;47063;-75
2023/02/13 01:52:56;;;;;;;;;41.50;37.50;;;;;9.18;61.87;102659.66;6334093;22;45609;-75
2023/02/13 01:55:23;;;;;;;;;38.50;32.00;;;;;9.24;62.05;102671.69;6334082;22;45566;-74
2023/02/13 01:57:55;;;;;;;;;39.00;31.00;;;;;9.17;61.94;102651.88;6333871;22;45464;-76
2023/02/13 02:00:21;;;;;;;;;29.00;26.25;;;;;9.22;61.96;102673.50;6333003;22;46061;-77
2023/02/13 02:03:10;;;;;;;;;38.00;32.50;;;;;9.19;62.24;102663.13;6334121;22;45391;-76
2023/02/13 02:05:35;;;;;;;;;40.25;33.75;;;;;9.19;61.95;102666.59;6334363;22;45453;-76
2023/02/13 02:08:05;;;;;;;;;37.50;33.75;;;;;9.19;61.92;102671.84;6334687;22;45729;-76
2023/02/13 02:10:31;;;;;;;;;40.00;37.00;;;;;9.18;62.16;102664.03;6334725;22;46134;-77
2023/02/13 02:13:05;;;;;;;;;34.75;31.50;;;;;9.17;62.22;102668.44;6332820;22;45383;-75
2023/02/13 02:15:32;;;;;;;;;40.00;31.75;;;;;9.15;62.16;102661.53;6333157;22;45892;-76
2023/02/13 02:17:57;;;;;;;;;39.75;32.75;;;;;9.16;62.18;102669.34;6305321;22;47593;-76
2023/02/13 02:21:13;;;;;;;;;43.00;34.00;;;;;9.14;62.17;102663.28;6333642;22;45521;-75
2023/02/13 02:24:07;;;;;;;;;39.50;34.75;;;;;9.15;62.38;102674.59;6313909;22;45829;-75
2023/02/13 02:26:51;;;;;;;;;38.50;30.50;;;;;9.13;62.14;102661.56;6333955;22;45543;-74
2023/02/13 02:29:47;;;;;;;;;37.00;34.75;;;;;9.13;62.29;102665.94;6333519;22;45601;-74
2023/02/13 02:32:18;;;;;;;;;38.75;32.25;;;;;9.12;62.34;102659.84;6332796;22;45946;-77
2023/02/13 02:34:49;;;;;;;;;39.75;33.50;;;;;9.11;62.24;102658.16;6333221;22;45795;-74
2023/02/13 02:37:32;;;;;;;;;37.75;34.25;;;;;9.11;62.39;102659.94;6334182;22;45656;-76
2023/02/13 02:40:22;;;;;;;;;42.50;37.00;;;;;9.10;62.37;102659.06;6333625;22;46546;-76
2023/02/13 02:46:26;;;;;;;;;32.50;30.00;;;;;9.09;62.55;102654.75;6333281;22;45454;-75
2023/02/13 02:52:06;;;;;;;;;44.25;37.75;;;;;9.08;62.46;102655.63;6333443;22;46143;-75
2023/02/13 03:06:42;;;;;;;;;42.00;38.50;;;;;9.04;62.41;102651.41;6309896;22;45980;-74
2023/02/13 03:14:43;;;;;;;;;36.50;33.50;;;;;8.98;62.83;102653.38;6333131;22;45638;-76
2023/02/13 03:23:53;;;;;;;;;41.25;32.75;;;;;8.97;62.59;102665.56;6268423;22;45661;-74
2023/02/13 03:26:49;;;;;;;;;37.50;33.25;;;;;8.97;62.88;102664.72;6267486;22;46683;-75
2023/02/13 03:33:00;;;;;;;;;35.00;31.75;;;;;8.93;62.95;102660.50;6268251;22;45767;-75
2023/02/13 03:38:45;;;;;;;;;46.00;39.25;;;;;8.92;62.71;102656.16;6245343;22;45588;-75
2023/02/13 03:41:17;;;;;;;;;43.25;37.75;;;;;8.91;62.75;102655.31;6267012;22;46456;-76
2023/02/13 03:44:06;;;;;;;;;38.00;33.25;;;;;8.89;62.82;102649.28;6241066;22;46137;-76
2023/02/13 03:46:38;;;;;;;;;46.50;38.50;;;;;8.88;62.94;102646.72;6267647;22;45747;-77
2023/02/13 03:52:09;;;;;;;;;40.25;32.25;;;;;8.88;63.19;102654.56;6267827;22;45635;-77
2023/02/13 04:00:16;;;;;;;;;37.25;35.25;;;;;8.83;63.25;102657.31;6332459;22;45463;-77
2023/02/13 04:02:55;;;;;;;;;40.75;35.75;;;;;8.83;63.25;102654.72;6332555;22;46152;-75
2023/02/13 04:05:25;;;;;;;;;37.75;35.25;;;;;8.82;63.46;102656.47;6333093;22;45756;-75
2023/02/13 04:07:50;;;;;;;;;42.50;33.75;;;;;8.80;63.04;102658.25;6332397;22;45829;-76
2023/02/13 04:10:18;;;;;;;;;45.50;38.25;;;;;8.78;63.38;102662.69;6332017;22;46140;-76
2023/02/13 04:12:58;;;;;;;;;40.50;35.00;;;;;8.77;63.53;102657.50;6333593;22;45947;-77
2023/02/13 04:15:23;;;;;;;;;36.00;33.00;;;;;8.75;63.35;102660.16;6334456;22;45843;-76
2023/02/13 04:17:56;;;;;;;;;36.00;31.00;;;;;8.69;63.27;102652.50;6334606;22;45670;-75
2023/02/13 04:20:26;;;;;;;;;35.50;31.25;;;;;8.72;63.37;102659.41;6334125;22;46265;-72
2023/02/13 04:22:51;;;;;;;;;43.50;35.75;;;;;8.63;63.38;102646.63;6334704;22;46044;-76
2023/02/13 04:25:18;;;;;;;;;32.50;27.75;;;;;8.71;63.68;102663.78;6332031;22;45560;-75
2023/02/13 04:27:43;;;;;;;;;41.00;30.25;;;;;8.70;63.75;102654.22;6334149;22;45897;-77
2023/02/13 04:30:09;;;;;;;;;37.75;29.00;;;;;8.64;63.51;102657.00;6333474;22;46256;-77
2023/02/13 04:32:35;;;;;;;;;43.00;36.75;;;;;8.67;63.86;102664.78;6334052;22;46813;-76
2023/02/13 04:35:00;;;;;;;;;35.50;32.00;;;;;8.62;64.14;102658.84;6333732;22;45676;-76
2023/02/13 04:37:25;;;;;;;;;38.00;34.25;;;;;8.60;63.85;102660.63;6334844;22;45417;-73
2023/02/13 04:39:51;;;;;;;;;45.00;36.00;;;;;8.58;63.86;102664.19;6333435;22;46638;-76
2023/02/13 04:42:16;;;;;;;;;36.25;30.00;;;;;8.55;64.07;102664.28;6333782;22;46964;-75
2023/02/13 04:44:41;;;;;;;;;33.75;26.75;;;;;8.46;63.90;102647.13;6334165;22;45448;-77
2023/02/13 04:47:07;;;;;;;;;42.50;34.75;;;;;8.47;64.27;102654.06;6334361;22;45491;-75
2023/02/13 04:49:32;;;;;;;;;36.25;32.25;;;;;8.48;63.98;102660.13;6306053;22;48381;-77
2023/02/13 04:51:58;;;;;;;;;40.25;34.25;;;;;8.47;63.95;102661.06;6334302;22;46374;-75
2023/02/13 04:54:23;;;;;;;;;43.25;34.25;;;;;8.42;64.01;102651.56;6333921;22;45498;-75
2023/02/13 04:56:48;;;;;;;;;42.00;35.25;;;;;8.45;64.10;102649.78;6334228;22;45750;-77
2023/02/13 04:59:14;;;;;;;;;43.00;35.75;;;;;8.43;64.43;102658.50;6333368;22;46182;-75
2023/02/13 05:01:39;;;;;;;;;44.00;37.00;;;;;8.41;64.14;102660.31;6334088;22;45633;-77
2023/02/13 05:04:04;;;;;;;;;36.50;35.00;;;;;8.39;64.21;102656.03;6334387;22;45470;-76
2023/02/13 05:06:30;;;;;;;;;32.50;30.00;;;;;8.38;64.28;102662.16;6334679;22;45614;-76
2023/02/13 05:08:55;;;;;;;;;44.25;36.25;;;;;8.37;64.32;102657.81;6333976;22;46362;-77
2023/02/13 05:11:20;;;;;;;;;38.00;32.00;;;;;8.33;64.43;102649.22;6333585;22;46034;-76
2023/02/13 05:13:46;;;;;;;;;37.00;33.25;;;;;8.33;64.18;102653.59;6333642;22;45497;-76
2023/02/13 05:19:33;;;;;;;;;39.00;35.00;;;;;8.31;64.21;102645.81;6333910;22;45946;-74
2023/02/13 05:24:42;;;;;;;;;48.25;38.25;;;;;8.27;64.20;102638.06;6333557;22;45659;-76
2023/02/13 05:27:07;;;;;;;;;38.25;33.75;;;;;8.23;64.39;102631.22;6334495;22;45477;-77
2023/02/13 05:29:33;;;;;;;;;48.75;40.00;;;;;8.28;64.43;102640.66;6334199;22;46763;-75
2023/02/13 05:35:24;;;;;;;;;38.00;34.75;;;;;8.23;64.82;102639.06;6333865;22;45667;-76
2023/02/13 05:37:49;;;;;;;;;42.75;39.25;;;;;8.26;64.53;102658.09;6333622;22;45534;-77
2023/02/13 05:40:15;;;;;;;;;43.00;35.75;;;;;8.23;64.66;102659.94;6334122;22;45398;-75
2023/02/13 05:42:41;;;;;;;;;42.25;38.75;;;;;8.20;64.78;102655.69;6334031;22;45544;-75
2023/02/13 05:45:08;;;;;;;;;36.50;31.25;;;;;8.20;64.58;102654.84;6333304;22;45459;-76
2023/02/13 05:47:35;;;;;;;;;43.25;38.50;;;;;8.17;64.67;102654.91;6333589;22;45727;-75
2023/02/13 05:50:00;;;;;;;;;40.75;36.75;;;;;8.10;64.63;102640.34;6333831;22;45552;-77
2023/02/13 05:52:26;;;;;;;;;44.00;34.75;;;;;8.12;64.61;102647.19;6334035;22;46109;-76
2023/02/13 05:54:51;;;;;;;;;37.50;34.75;;;;;8.11;64.65;102640.25;6333639;22;45591;-75
2023/02/13 05:57:17;;;;;;;;;48.75;37.25;;;;;8.13;64.58;102650.66;6334278;22;45636;-75
2023/02/13 05:59:42;;;;;;;;;41.75;35.25;;;;;8.09;64.64;102642.09;6333256;22;45668;-75
2023/02/13 06:05:29;;;;;;;;;38.50;34.50;;;;;8.12;64.63;102652.41;6333724;22;45497;-75
2023/02/13 06:07:55;;;;;;;;;35.75;34.75;;;;;8.11;64.66;102657.69;6334181;22;45413;-75
2023/02/13 06:10:20;;;;;;;;;42.25;37.25;;;;;8.12;64.79;102659.41;6333530;22;47160;-75
2023/02/13 06:12:45;;;;;;;;;43.00;36.75;;;;;8.12;64.70;102651.56;6332962;22;46943;-75
2023/02/13 06:15:11;;;;;;;;;45.50;34.50;;;;;8.11;64.82;102661.16;6333960;22;45424;-75
2023/02/13 06:20:58;;;;;;;;;41.00;36.00;;;;;8.09;64.79;102657.75;6333484;22;45899;-74
2023/02/13 06:23:24;;;;;;;;;51.50;38.25;;;;;8.10;64.83;102654.22;6334229;22;45595;-73
2023/02/13 06:25:49;;;;;;;;;42.50;35.50;;;;;8.07;64.85;102653.44;6333907;22;45524;-75
2023/02/13 06:28:14;;;;;;;;;42.00;34.00;;;;;8.09;64.74;102655.13;6334524;22;45442;-76
2023/02/13 06:30:39;;;;;;;;;41.50;33.75;;;;;8.04;65.01;102643.97;6335596;22;45503;-75
2023/02/13 06:33:06;;;;;;;;;35.00;30.75;;;;;8.08;64.80;102657.78;6334474;22;46174;-75
2023/02/13 06:35:32;;;;;;;;;43.75;35.00;;;;;8.05;65.01;102656.09;6333107;22;45529;-71
2023/02/13 06:37:57;;;;;;;;;45.50;38.75;;;;;8.08;64.82;102661.25;6332803;22;45522;-74
2023/02/13 06:40:22;;;;;;;;;42.00;35.75;;;;;8.09;65.00;102665.56;6331265;22;47221;-74
2023/02/13 06:42:48;;;;;;;;;46.00;38.50;;;;;8.09;64.93;102662.97;6333821;22;46690;-73
2023/02/13 06:45:14;;;;;;;;;46.50;35.75;;;;;8.09;64.98;102669.94;6332732;22;45486;-73
2023/02/13 06:51:01;;;;;;;;;38.75;34.75;;;;;8.09;64.94;102678.63;6333010;22;45482;-72
2023/02/13 06:53:27;;;;;;;;;47.25;36.25;;;;;8.05;64.98;102661.31;6333655;22;46000;-73
2023/02/13 06:55:54;;;;;;;;;45.75;38.50;;;;;8.10;64.87;102669.03;6333001;22;45767;-74
2023/02/13 06:58:20;;;;;;;;;47.00;41.00;;;;;8.08;65.24;102670.84;6332688;22;45560;-72
2023/02/13 07:00:46;;;;;;;;;37.75;31.75;;;;;8.06;64.95;102662.16;6332914;22;47307;-73
2023/02/13 07:06:33;;;;;;;;;34.25;26.25;;;;;8.07;64.97;102674.34;6333458;22;45585;-74
2023/02/13 07:09:00;;;;;;;;;38.25;33.25;;;;;8.14;64.97;102681.09;6332778;22;45494;-73
2023/02/13 07:11:25;;;;;;;;;45.50;39.25;;;;;8.11;65.02;102684.66;6331930;22;47581;-72
2023/02/13 07:13:51;;;;;;;;;41.00;32.25;;;;;8.15;64.95;102683.66;6332606;22;47090;-73
2023/02/13 07:16:16;;;;;;;;;31.75;27.00;;;;;8.16;65.08;102693.19;6333811;22;45486;-72
2023/02/13 07:18:41;;;;;;;;;37.75;30.00;;;;;8.17;65.08;102696.66;6332897;22;45712;-71
2023/02/13 07:21:07;;;;;;;;;42.00;38.75;;;;;8.16;65.15;102692.34;6332625;22;46467;-74
2023/02/13 07:23:33;;;;;;;;;38.75;31.25;;;;;8.17;65.01;102696.66;6333597;22;45563;-74
2023/02/13 07:25:59;;;;;;;;;42.25;34.00;;;;;8.18;65.14;102701.00;6332762;22;45504;-73
2023/02/13 07:28:26;;;;;;;;;45.25;35.00;;;;;8.19;65.23;102707.94;6330933;22;45823;-73
2023/02/13 07:30:51;;;;;;;;;43.00;37.25;;;;;8.18;65.03;102704.47;6333321;22;46553;-72
2023/02/13 07:36:38;;;;;;;;;41.75;38.75;;;;;8.22;64.97;102713.94;6333496;22;45450;-73
2023/02/13 07:39:03;;;;;;;;;50.00;36.00;;;;;8.21;65.06;102712.22;6333887;22;45434;-73
2023/02/13 07:41:28;;;;;;;;;44.25;39.00;;;;;8.24;65.10;102717.38;6333441;22;45490;-75
2023/02/13 07:43:54;;;;;;;;;47.25;39.50;;;;;8.21;64.98;102704.38;6305562;22;45896;-73
2023/02/13 07:46:19;;;;;;;;;46.25;39.50;;;;;8.23;64.51;102699.13;6332784;22;45470;-73
2023/02/13 07:52:06;;;;;;;;;51.25;41.25;;;;;8.28;65.19;102708.53;6334619;22;45970;-72
2023/02/13 07:54:32;;;;;;;;;43.00;36.50;;;;;8.29;65.25;102702.41;6334823;22;45961;-74
2023/02/13 07:56:58;;;;;;;;;52.50;39.75;;;;;8.30;65.13;102704.19;6335028;22;45450;-74
2023/02/13 07:59:23;;;;;;;;;44.75;39.00;;;;;8.30;65.24;102709.41;6334252;22;45442;-74
2023/02/13 08:01:49;;;;;;;;;51.50;41.00;;;;;8.32;65.08;102712.81;6334808;22;46364;-74
2023/02/13 08:04:14;;;;;;;;;48.25;40.25;;;;;8.32;65.31;102710.19;6334875;22;45499;-73
2023/02/13 08:06:40;;;;;;;;;48.00;39.00;;;;;8.31;65.50;102705.84;6334070;22;45516;-74
2023/02/13 08:11:55;;;;;;;;;48.25;38.25;;;;;8.33;65.13;102708.44;6333625;22;45730;-74
2023/02/13 08:14:25;;;;;;;;;43.75;35.00;;;;;8.34;65.18;102711.00;6333804;22;46251;-73
2023/02/13 08:16:52;;;;;;;;;43.25;38.25;;;;;8.35;65.09;102714.50;6334075;22;45816;-72
2023/02/13 08:22:39;;;;;;;;;49.75;40.50;;;;;8.37;65.15;102702.22;6334585;22;45580;-74
2023/02/13 08:25:07;;;;;;;;;38.00;32.75;;;;;8.40;65.22;102710.00;6334839;22;45495;-74
2023/02/13 08:27:32;;;;;;;;;42.00;36.50;;;;;8.41;65.18;102707.34;6333935;22;45586;-76
2023/02/13 08:29:58;;;;;;;;;44.00;37.25;;;;;8.44;65.32;102716.81;6333992;22;45886;-73
2023/02/13 08:32:24;;;;;;;;;43.75;32.25;;;;;8.45;65.31;102713.31;6334157;22;47035;-73
2023/02/13 08:34:50;;;;;;;;;52.00;39.25;;;;;8.45;65.15;102713.31;6335061;22;45925;-74
2023/02/13 08:37:16;;;;;;;;;48.25;39.00;;;;;8.47;65.04;102714.16;6334357;22;45516;-73
2023/02/13 08:39:41;;;;;;;;;41.50;36.50;;;;;8.52;65.15;102727.94;6334200;22;45611;-73
2023/02/13 08:42:07;;;;;;;;;48.00;35.25;;;;;8.55;65.01;102724.34;6333795;22;46437;-74
2023/02/13 08:44:32;;;;;;;;;47.00;38.00;;;;;8.53;64.94;102720.94;6332398;22;46253;-74
2023/02/13 08:47:00;;;;;;;;;44.75;35.50;;;;;8.59;65.06;102718.13;6334956;22;45535;-73
2023/02/13 08:52:47;;;;;;;;;40.75;36.00;;;;;8.63;65.00;102723.25;6334262;22;45516;-74
2023/02/13 08:55:13;;;;;;;;;54.50;39.25;;;;;8.66;64.90;102732.75;6333832;22;46939;-74
2023/02/13 08:57:38;;;;;;;;;50.25;40.25;;;;;8.68;64.93;102728.34;6334181;22;45372;-76
2023/02/13 09:00:04;;;;;;;;;46.75;37.75;;;;;8.69;64.74;102733.50;6333991;22;45490;-74
2023/02/13 09:02:30;;;;;;;;;51.25;40.50;;;;;8.73;64.72;102726.44;6333660;22;45660;-73
2023/02/13 09:08:17;;;;;;;;;41.00;35.00;;;;;8.78;64.41;102725.41;6334002;22;45813;-74
2023/02/13 09:10:42;;;;;;;;;47.50;41.00;;;;;8.80;64.67;102726.22;6334575;22;45499;-73
2023/02/13 09:13:08;;;;;;;;;46.25;40.00;;;;;8.83;64.25;102726.13;6333728;22;46203;-73
2023/02/13 09:15:38;;;;;;;;;50.50;41.00;;;;;8.82;64.64;102721.81;6333728;22;46980;-73
2023/02/13 09:18:03;;;;;;;;;60.00;42.50;;;;;8.84;64.88;102727.00;6334522;22;45678;-73
2023/02/13 09:20:28;;;;;;;;;48.00;41.00;;;;;8.85;64.24;102726.94;6334247;22;45928;-73
2023/02/13 09:22:55;;;;;;;;;52.75;41.75;;;;;8.88;64.31;102733.84;6334033;22;47320;-74
2023/02/13 09:25:20;;;;;;;;;56.25;43.25;;;;;8.91;64.25;102731.13;6332007;22;47448;-72
2023/02/13 09:27:46;;;;;;;;;57.25;43.50;;;;;8.83;64.36;102713.06;6333426;22;48559;-73
2023/02/13 09:30:21;;;;;;;;;50.75;41.00;;;;;8.90;63.91;102724.19;6333601;22;45514;-74
2023/02/13 09:32:47;;;;;;;;;59.75;43.00;;;;;8.97;64.20;102727.47;6333588;22;46914;-74
2023/02/13 09:38:34;;;;;;;;;22.00;7.00;;;;;8.97;64.22;102722.22;6334187;22;45764;-74
2023/02/13 09:41:04;;;;;;;;;56.75;44.75;;;;;9.04;64.01;102726.38;6305725;22;45529;-73
2023/02/13 09:44:33;;;;;;;;;49.00;42.25;;;;;9.07;63.98;102727.13;6333322;22;46793;-74
2023/02/13 09:47:12;;;;;;;;;57.75;42.25;;;;;9.04;64.17;102724.63;6236916;22;46951;-73
2023/02/13 09:49:43;;;;;;;;;53.50;41.25;;;;;9.10;63.87;102740.13;6238869;22;45508;-72
2023/02/13 09:52:09;;;;;;;;;57.50;42.25;;;;;9.11;63.87;102733.13;6240109;22;45639;-75
2023/02/13 09:54:34;;;;;;;;;50.00;41.25;;;;;9.13;63.99;102739.16;6239132;22;46502;-74
2023/02/13 09:57:20;;;;;;;;;56.25;43.75;;;;;9.14;63.79;102743.50;6237715;22;45828;-73
2023/02/13 10:00:12;;;;;;;;;51.75;42.75;;;;;9.17;63.74;102739.03;6238005;22;45818;-73
2023/02/13 10:02:45;;;;;;;;;51.75;42.25;;;;;9.16;63.69;102728.63;6237430;22;45496;-73
2023/02/13 10:06:02;;;;;;;;;52.25;42.25;;;;;9.25;63.64;102734.41;6236904;22;47053;-73
2023/02/13 10:09:09;;;;;;;;;50.75;41.75;;;;;9.27;63.46;102740.47;6116689;23;46187;-73
2023/02/13 10:12:11;;;;;;;;;56.75;42.50;;;;;9.29;63.59;102737.78;6111772;23;45510;-74
2023/02/13 10:15:10;;;;;;;;;54.75;43.75;;;;;9.30;63.76;102733.41;6092602;23;45951;-74
2023/02/13 10:17:43;;;;;;;;;51.25;42.00;;;;;9.35;63.57;102734.13;6117063;23;45676;-73
2023/02/13 10:20:31;;;;;;;;;53.50;44.25;;;;;9.31;63.47;102719.44;6117134;23;46051;-74
2023/02/13 10:23:21;;;;;;;;;55.00;41.75;;;;;9.42;63.66;102743.50;6154041;22;45532;-73
2023/02/13 10:26:10;;;;;;;;;56.50;42.75;;;;;9.44;63.34;102739.94;6181051;22;45634;-73
2023/02/13 10:30:03;;;;;;;;;57.75;42.00;;;;;9.46;63.24;102732.00;6207085;22;45706;-73
2023/02/13 10:31:33;;;;;;;;;57.25;44.50;;;;;9.47;63.51;102731.97;6206244;22;45735;-73
2023/02/13 10:37:21;;;;;;;;;57.25;45.25;;;;;9.55;63.30;102736.97;6207153;22;45646;-74
2023/02/13 10:39:50;;;;;;;;;62.25;48.25;;;;;9.50;62.95;102724.00;6206512;22;47189;-74
2023/02/13 10:42:42;;;;;;;;;54.50;43.00;;;;;9.60;63.02;102735.91;6207336;22;46291;-72
2023/02/13 10:45:31;;;;;;;;;57.75;44.25;;;;;9.64;63.22;102731.41;6286004;22;45811;-72
2023/02/13 10:48:15;;;;;;;;;60.00;46.25;;;;;9.68;63.16;102727.78;6301503;22;45583;-73
2023/02/13 10:54:34;;;;;;;;;54.50;42.25;;;;;9.76;62.95;102722.31;6302241;22;46019;-74
2023/02/13 10:57:41;;;;;;;;;59.50;45.25;;;;;9.80;63.00;102719.53;6207406;22;45637;-73
2023/02/13 11:00:23;;;;;;;;;63.75;48.25;;;;;9.78;62.77;102703.00;6116496;23;45713;-73
2023/02/13 11:02:49;;;;;;;;;61.00;47.00;;;;;9.89;62.83;102713.97;6117081;23;46192;-74
2023/02/13 11:05:14;;;;;;;;;61.75;49.25;;;;;9.94;62.76;102712.06;6116185;23;47056;-71
2023/02/13 11:07:41;;;;;;;;;62.33;47.33;;;;;9.98;62.60;102704.97;6116211;23;45568;-74
2023/02/13 11:10:15;;;;;;;;;60.00;47.00;;;;;10.03;62.36;102697.81;6117548;23;45474;-74
2023/02/13 11:12:41;;;;;;;;;57.25;44.50;;;;;10.01;62.28;102689.13;6135547;23;45830;-73
2023/02/13 11:15:18;;;;;;;;;60.25;43.50;;;;;10.08;62.06;102690.63;6144621;23;46257;-74
2023/02/13 11:17:45;;;;;;;;;53.00;41.75;;;;;10.13;62.27;102688.72;6143955;23;45550;-72
2023/02/13 11:20:29;;;;;;;;;59.50;43.50;;;;;10.19;61.71;102683.28;6143854;23;45677;-72
2023/02/13 11:23:13;;;;;;;;;61.50;47.75;;;;;10.14;61.95;102672.09;6144347;23;45779;-73
2023/02/13 11:25:38;;;;;;;;;59.75;46.25;;;;;10.26;61.99;102683.88;6143099;23;47431;-73
2023/02/13 11:28:16;;;;;;;;;60.50;47.75;;;;;10.28;61.79;102680.31;6144322;23;45687;-74
2023/02/13 11:30:41;;;;;;;;;59.50;46.75;;;;;10.29;61.86;102676.78;6144259;23;45531;-73
2023/02/13 11:33:15;;;;;;;;;64.25;48.25;;;;;10.36;61.90;102675.66;6208720;22;45769;-72
2023/02/13 11:35:41;;;;;;;;;56.00;43.75;;;;;10.39;61.62;102672.06;6236994;22;46409;-73
2023/02/13 11:38:09;;;;;;;;;61.25;49.25;;;;;10.42;61.47;102671.94;6330349;22;45703;-74
2023/02/13 11:40:35;;;;;;;;;60.50;46.00;;;;;10.38;61.61;102652.88;6331998;22;45563;-74
2023/02/13 11:43:01;;;;;;;;;54.00;46.25;;;;;10.49;61.35;102663.81;6331527;22;46458;-73
2023/02/13 11:45:27;;;;;;;;;54.75;43.75;;;;;10.53;61.19;102664.53;6302335;22;46039;-73
2023/02/13 11:47:55;;;;;;;;;57.50;42.00;;;;;10.56;61.22;102658.31;6330222;22;45627;-72
2023/02/13 11:50:27;;;;;;;;;54.25;43.25;;;;;10.63;61.04;102659.81;6330341;22;45732;-74
2023/02/13 11:53:37;;;;;;;;;57.00;41.00;;;;;10.67;60.98;102659.63;6330574;22;47263;-73
2023/02/13 11:56:13;;;;;;;;;61.50;49.75;;;;;10.73;60.69;102653.28;6330367;22;46077;-73
2023/02/13 11:58:40;;;;;;;;;59.75;47.25;;;;;10.77;60.80;102662.75;6330120;22;45791;-74
2023/02/13 12:01:27;;;;;;;;;57.75;47.00;;;;;10.78;60.36;102646.09;6331376;22;45360;-74
2023/02/13 12:04:03;;;;;;;;;59.25;47.75;;;;;10.85;60.54;102653.66;6330003;22;47165;-72
2023/02/13 12:06:29;;;;;;;;;62.50;47.75;;;;;10.88;60.69;102648.31;6330665;22;46051;-73
2023/02/13 12:08:56;;;;;;;;;24.50;18.25;;;;;10.91;60.34;102652.56;6330630;22;45563;-71
2023/02/13 12:11:26;;;;;;;;;60.25;45.50;;;;;10.94;60.34;102637.56;6277471;22;1192086;-72
2023/02/13 12:13:52;;;;;;;;;56.25;45.25;;;;;11.01;60.21;102648.69;6332519;22;45548;-74
2023/02/13 12:16:27;;;;;;;;;60.75;44.00;;;;;11.05;60.05;102642.38;6332870;22;45588;-73
2023/02/13 12:18:57;;;;;;;;;57.00;46.00;;;;;11.06;60.06;102632.75;6332073;22;45509;-72
2023/02/13 12:21:37;;;;;;;;;57.50;47.00;;;;;11.16;60.16;102648.06;6331780;22;45690;-73
2023/02/13 12:24:25;;;;;;;;;58.75;45.25;;;;;11.21;60.23;102642.63;6332976;22;46391;-73
2023/02/13 12:27:08;;;;;;;;;56.75;47.50;;;;;11.25;59.90;102649.44;6333435;22;45497;-75
2023/02/13 12:30:10;;;;;;;;;57.00;44.25;;;;;11.29;59.77;102638.75;6332077;22;45934;-73
2023/02/13 12:32:46;;;;;;;;;58.00;46.00;;;;;11.32;59.47;102640.41;6332620;22;45673;-74
2023/02/13 12:38:53;;;;;;;;;53.25;43.00;;;;;11.41;59.12;102628.66;6333807;22;46065;-72
2023/02/13 12:41:41;;;;;;;;;55.50;43.75;;;;;11.48;59.23;102630.97;6305567;22;46026;-73
2023/02/13 12:44:22;;;;;;;;;55.50;44.00;;;;;11.51;58.97;102625.56;6333561;22;46028;-73
2023/02/13 12:47:15;;;;;;;;;54.00;42.75;;;;;11.57;58.99;102621.84;6334103;22;45494;-72
2023/02/13 12:54:10;;;;;;;;;58.25;43.00;;;;;11.69;58.96;102618.69;6333780;22;45569;-71
2023/02/13 12:56:54;;;;;;;;;58.25;45.25;;;;;11.72;58.53;102618.53;6334341;22;45565;-72
2023/02/13 12:59:26;;;;;;;;;54.75;43.00;;;;;11.76;58.34;102617.53;6333709;22;45605;-74
2023/02/13 13:02:17;;;;;;;;;58.00;42.75;;;;;11.81;58.43;102615.56;6334020;22;45756;-74
2023/02/13 13:05:04;;;;;;;;;52.50;44.00;;;;;11.87;58.40;102612.69;6236941;22;45925;-74
2023/02/13 13:11:03;;;;;;;;;56.50;43.75;;;;;11.96;57.81;102608.78;6240250;22;46089;-73
2023/02/13 13:14:03;;;;;;;;;58.25;44.50;;;;;11.97;57.78;102600.84;6213941;22;47731;-74
2023/02/13 13:16:41;;;;;;;;;48.75;41.00;;;;;12.05;57.48;102606.56;6117148;23;45476;-73
2023/02/13 13:19:35;;;;;;;;;57.50;44.75;;;;;12.07;57.75;102596.88;6117188;23;45640;-74
2023/02/13 13:22:08;;;;;;;;;48.50;41.75;;;;;12.16;57.24;102606.09;6117339;23;45583;-72
2023/02/13 13:24:45;;;;;;;;;54.50;42.25;;;;;12.15;57.20;102589.47;6117388;23;46188;-73
2023/02/13 13:27:22;;;;;;;;;43.25;37.50;;;;;12.23;57.09;102590.91;6116624;23;46082;-73
2023/02/13 13:29:57;;;;;;;;;54.00;41.75;;;;;12.25;57.03;102589.91;6116889;23;45782;-73
2023/02/13 13:32:25;;;;;;;;;55.25;42.25;;;;;12.33;57.27;102597.44;6116413;23;46669;-73
2023/02/13 13:34:51;;;;;;;;;54.25;42.00;;;;;12.38;57.10;102590.19;6116287;23;46100;-74
2023/02/13 13:37:41;;;;;;;;;56.25;41.75;;;;;12.41;56.97;102590.06;6117184;23;45699;-74
2023/02/13 13:40:13;;;;;;;;;50.75;41.00;;;;;12.45;56.42;102584.56;6117049;23;45667;-72